Weather History for Eureka, AK

Change the Weather History Date:

Thursday, September 27, 2012

  Actual Average Record
Temperature  
Mean Temperature 37 °F -  
Max Temperature 44 °F 36 °F 46 °F (2003)
Min Temperature 30 °F 25 °F 17 °F (2010)
Degree Days  
Heating Degree Days 28    
Moisture  
Dew Point 28 °F    
Average Humidity 76    
Maximum Humidity 100    
Minimum Humidity 46    
Precipitation  
Precipitation 0.00 in - - ()
Sea Level Pressure  
Sea Level Pressure 28.93 in    
Wind  
Wind Speed 9 mph (ENE)    
Max Wind Speed 15 mph    
Max Gust Speed 17 mph    
Visibility 9 miles    
Events      
Averages and records for this station are not official NWS values.
T = Trace of Precipitation, MM = Missing Value Source: NWS Daily Summary

Daily Weather History Graph

Daily Weather History Graph

Search for Another Location

Airport:

Trip Planner

Search our weather history database for the weather conditions in past years. The results will help you decide how hot, cold, wet, or windy it might be!

Date:

Astronomy

Sep. 27, 2012 Rise Set
Actual Time 7:47 AM AKDT 7:30 PM AKDT
Civil Twilight 7:03 AM AKDT 8:14 PM AKDT
Nautical Twilight 6:10 AM AKDT 9:06 PM AKDT
Astronomical Twilight 5:13 AM AKDT 10:02 PM AKDT
Moon 6:25 PM AKDT (9/27) 4:57 AM AKDT (9/27)
Length of Visible Light 13h 11m
Length of Day
11h 43m
Waxing Gibbous, 94% of the Moon is Illuminated
Sep 27
Waxing Gibbous
Sep 29
Full
Oct 7
Last Quarter
Oct 15
New
Oct 21
First Quarter

Hourly Weather History & Observations

Time (AKDT) Temp. Windchill Dew Point Humidity Pressure Visibility Wind Dir Wind Speed Gust Speed Precip Events Conditions
12:16 AM 35.6 °F 28.0 °F 24.8 °F 65% 28.89 in 10.0 mi NE 10.4 mph - N/A   Overcast
12:36 AM 37.4 °F 30.3 °F 24.8 °F 60% 28.87 in 10.0 mi NE 10.4 mph - N/A   Overcast
12:56 AM 35.6 °F 28.6 °F 24.8 °F 65% 28.86 in 10.0 mi NE 9.2 mph - N/A   Overcast
1:16 AM 37.4 °F 31.4 °F 26.6 °F 65% 28.84 in 10.0 mi NE 8.1 mph - N/A   Overcast
1:36 AM 33.8 °F 30.8 °F 28.4 °F 81% 28.83 in 10.0 mi East 3.5 mph - N/A   Scattered Clouds
1:56 AM 35.6 °F 28.0 °F 26.6 °F 70% 28.83 in 10.0 mi East 10.4 mph 17.3 mph N/A   Mostly Cloudy
2:16 AM 33.8 °F 26.4 °F 28.4 °F 81% 28.84 in 5.0 mi ENE 9.2 mph - N/A   Overcast
2:36 AM 33.8 °F 25.3 °F 30.2 °F 87% 28.83 in 3.0 mi NE 11.5 mph - N/A   Overcast
2:56 AM 33.8 °F 25.3 °F 30.2 °F 87% 28.83 in 7.0 mi ENE 11.5 mph - N/A   Overcast
3:16 AM 33.8 °F 27.0 °F 32.0 °F 93% 28.85 in 10.0 mi NE 8.1 mph - N/A   Overcast
3:36 AM 33.8 °F 25.8 °F 32.0 °F 93% 28.84 in 10.0 mi NE 10.4 mph - N/A   Overcast
3:56 AM 33.8 °F 26.4 °F 32.0 °F 93% 28.84 in 10.0 mi ENE 9.2 mph - N/A   Overcast
4:16 AM 33.8 °F 27.0 °F 32.0 °F 93% 28.85 in 10.0 mi ENE 8.1 mph - N/A   Overcast
4:36 AM 32.0 °F 23.0 °F 30.2 °F 93% 28.85 in 2.0 mi East 11.5 mph - N/A   Overcast
4:56 AM 32.0 °F 24.8 °F 30.2 °F 93% 28.84 in 0.5 mi ENE 8.1 mph - N/A   Overcast
5:16 AM 30.2 °F 25.4 °F 28.4 °F 93% 28.84 in 0.2 mi NE 4.6 mph - N/A   Overcast
5:36 AM 30.2 °F - 28.4 °F 93% 28.84 in 0.2 mi Calm Calm - N/A   Overcast
5:56 AM 30.2 °F 24.3 °F 28.4 °F 93% 28.84 in 5.0 mi ESE 5.8 mph - N/A   Scattered Clouds
6:16 AM 30.2 °F 22.6 °F 28.4 °F 93% 28.84 in 1.2 mi ENE 8.1 mph - N/A   Scattered Clouds
6:36 AM 30.2 °F 25.4 °F 28.4 °F 93% 28.84 in 0.8 mi NE 4.6 mph - N/A   Overcast
6:56 AM 30.2 °F 24.3 °F 30.2 °F 100% 28.84 in 10.0 mi North 5.8 mph - N/A   Mostly Cloudy
7:16 AM 30.2 °F 25.4 °F 28.4 °F 93% 28.86 in 10.0 mi NE 4.6 mph - N/A   Clear
7:36 AM 30.2 °F 22.6 °F 28.4 °F 93% 28.86 in 10.0 mi NNE 8.1 mph - N/A   Clear
7:56 AM 30.2 °F 23.4 °F 28.4 °F 93% 28.86 in 8.0 mi NNE 6.9 mph - N/A   Partly Cloudy
8:16 AM 30.2 °F 21.3 °F 28.4 °F 93% 28.85 in 10.0 mi NNE 10.4 mph - N/A   Partly Cloudy
8:36 AM 30.2 °F 22.6 °F 28.4 °F 93% 28.87 in 10.0 mi NE 8.1 mph - N/A   Clear
8:56 AM 30.2 °F 21.3 °F 28.4 °F 93% 28.88 in 10.0 mi NE 10.4 mph - N/A   Clear
9:16 AM 30.2 °F 22.6 °F 28.4 °F 93% 28.89 in 10.0 mi NNE 8.1 mph - N/A   Clear
9:36 AM 30.2 °F 21.9 °F 28.4 °F 93% 28.89 in 10.0 mi NNE 9.2 mph - N/A   Scattered Clouds
9:56 AM 32.0 °F 23.6 °F 30.2 °F 93% 28.90 in 10.0 mi NNE 10.4 mph - N/A   Scattered Clouds
10:16 AM 32.0 °F 24.8 °F 30.2 °F 93% 28.90 in 10.0 mi NE 8.1 mph - N/A   Partly Cloudy
10:36 AM 33.8 °F 25.8 °F 30.2 °F 87% 28.91 in 10.0 mi NE 10.4 mph - N/A   Clear
10:56 AM 33.8 °F 26.4 °F 30.2 °F 87% 28.92 in 10.0 mi NE 9.2 mph - N/A   Clear
11:16 AM 33.8 °F 26.4 °F 30.2 °F 87% 28.92 in 10.0 mi NE 9.2 mph - N/A   Partly Cloudy
11:36 AM 35.6 °F 28.0 °F 28.4 °F 75% 28.93 in 10.0 mi NE 10.4 mph - N/A   Scattered Clouds
11:56 AM 35.6 °F 28.6 °F 28.4 °F 75% 28.94 in 10.0 mi ENE 9.2 mph - N/A   Scattered Clouds
12:16 PM 35.6 °F 29.9 °F 30.2 °F 81% 28.95 in 10.0 mi NE 6.9 mph - N/A   Partly Cloudy
12:36 PM 37.4 °F 31.4 °F 30.2 °F 75% 28.95 in 10.0 mi NE 8.1 mph - N/A   Partly Cloudy
12:56 PM 39.2 °F 34.2 °F 28.4 °F 65% 28.95 in 10.0 mi East 6.9 mph - N/A   Scattered Clouds
1:16 PM 39.2 °F 35.0 °F 32.0 °F 75% 28.96 in 10.0 mi SE 5.8 mph - N/A   Scattered Clouds
1:36 PM 41.0 °F 35.8 °F 32.0 °F 70% 28.96 in 10.0 mi SSE 8.1 mph - N/A   Scattered Clouds
1:56 PM 41.0 °F 33.5 °F 30.2 °F 65% 28.98 in 10.0 mi SSE 13.8 mph 17.3 mph N/A   Clear
2:16 PM 39.2 °F 33.0 °F 28.4 °F 65% 28.97 in 10.0 mi SSE 9.2 mph 16.1 mph N/A   Clear
2:36 PM 39.2 °F 34.2 °F 28.4 °F 65% 28.97 in 10.0 mi South 6.9 mph - N/A   Mostly Cloudy
2:56 PM 39.2 °F 35.9 °F 28.4 °F 65% 28.97 in 10.0 mi SSE 4.6 mph - N/A   Partly Cloudy
3:16 PM 42.8 °F 37.0 °F 26.6 °F 53% 28.98 in 10.0 mi SSE 10.4 mph - N/A   Clear
3:36 PM 42.8 °F 38.0 °F 26.6 °F 53% 28.98 in 10.0 mi SE 8.1 mph - N/A   Partly Cloudy
3:56 PM 44.6 °F 40.2 °F 24.8 °F 46% 28.98 in 10.0 mi SE 8.1 mph - N/A   Mostly Cloudy
4:16 PM 44.6 °F 38.8 °F 26.6 °F 49% 28.98 in 10.0 mi SE 11.5 mph 16.1 mph N/A   Mostly Cloudy
4:36 PM 44.6 °F 39.2 °F 26.6 °F 49% 28.98 in 10.0 mi SSE 10.4 mph - N/A   Scattered Clouds
4:56 PM 44.6 °F 38.8 °F 24.8 °F 46% 28.98 in 10.0 mi SSE 11.5 mph - N/A   Clear
5:16 PM 42.8 °F 38.6 °F 24.8 °F 49% 28.98 in 10.0 mi SE 6.9 mph - N/A   Scattered Clouds
5:36 PM 42.8 °F 39.3 °F 24.8 °F 49% 28.99 in 10.0 mi SSE 5.8 mph - N/A   Mostly Cloudy
5:56 PM 41.0 °F 36.4 °F 24.8 °F 53% 28.99 in 10.0 mi SSE 6.9 mph - N/A   Scattered Clouds
6:36 PM 39.2 °F 35.9 °F 26.6 °F 61% 28.99 in 10.0 mi East 4.6 mph - N/A   Mostly Cloudy
6:56 PM 39.2 °F 35.9 °F 24.8 °F 56% 28.99 in 10.0 mi ESE 4.6 mph - N/A   Mostly Cloudy
7:16 PM 39.2 °F 35.0 °F 24.8 °F 56% 29.00 in 10.0 mi East 5.8 mph - N/A   Overcast
7:36 PM 37.4 °F 31.4 °F 24.8 °F 60% 29.00 in 10.0 mi ENE 8.1 mph - N/A   Overcast
7:56 PM 37.4 °F 29.8 °F 26.6 °F 65% 29.00 in 10.0 mi East 11.5 mph - N/A   Mostly Cloudy
8:16 PM 37.4 °F 29.8 °F 28.4 °F 70% 29.00 in 10.0 mi East 11.5 mph - N/A   Mostly Cloudy
8:36 PM 35.6 °F 26.2 °F 28.4 °F 75% 29.00 in 10.0 mi East 15.0 mph - N/A   Mostly Cloudy
8:56 PM 35.6 °F 27.5 °F 28.4 °F 75% 29.00 in 10.0 mi ENE 11.5 mph 17.3 mph N/A   Mostly Cloudy
9:16 PM 35.6 °F 27.5 °F 28.4 °F 75% 29.01 in 10.0 mi ENE 11.5 mph 17.3 mph N/A   Scattered Clouds
9:36 PM 35.6 °F 28.0 °F 26.6 °F 70% 29.01 in 10.0 mi ENE 10.4 mph - N/A   Scattered Clouds
9:56 PM 35.6 °F 26.6 °F 26.6 °F 70% 29.01 in 10.0 mi ENE 13.8 mph - N/A   Overcast
10:16 PM 35.6 °F 28.0 °F 26.6 °F 70% 29.01 in 10.0 mi ENE 10.4 mph - N/A   Mostly Cloudy
10:36 PM 35.6 °F 27.5 °F 26.6 °F 70% 29.02 in 10.0 mi East 11.5 mph - N/A   Partly Cloudy
10:56 PM 35.6 °F 28.0 °F 26.6 °F 70% 29.02 in 10.0 mi East 10.4 mph - N/A   Clear
11:16 PM 35.6 °F 28.6 °F 26.6 °F 70% 29.02 in 10.0 mi ENE 9.2 mph - N/A   Clear
11:36 PM 33.8 °F 26.4 °F 26.6 °F 75% 29.02 in 10.0 mi ENE 9.2 mph - N/A   Clear
11:56 PM 35.6 °F 27.5 °F 28.4 °F 75% 29.02 in 10.0 mi East 11.5 mph - N/A   Scattered Clouds